Airfield :
LOGIN :

Register | Disclaimer

   EN    FR    IT 

 










Legend :    VFR   Marginal VFR   IFR   Intensive IFR   Very Intensive IFR
Visi :
Ceiling :
>= 8 km
>= 3000ft
5 to 8 km
1000 to 3000 ft
1500m to 5 km
500 to 1000 ft
800 to 1500m
200 to 500 ft
< 800m
< 200 ft
Symbols :   Thunderstorms  Fog  Heavy snow  Heavy precipitations  Wind > 20 kt
SIGMETs :     Misc.  Thunderstorms  Icing  Turbulence  Mountain Waves  Volcanic Ashes







- Airport Elevation : 3 ft
- IATA code : DHR


EHKD - Den Helder De Kooy

CURRENT METAR :
  • 160836Z AUTO 32012KT 280V020 9999 FEW019 SCT024 05/01 Q1008 WHT 30010KT 9999 SCT023 TEMPO 32014G24KT 4000 SHRASNGS FEW007 SCT018CB

EXPIRED METARs :
  • 160825Z AUTO 32010KT 290V020 9999 NCD 05/01 Q1008 BLU 30010KT 9999 SCT023 TEMPO 32014G24KT 4000 SHRASNGS FEW007 SCT018CB
  • 160755Z AUTO 33014KT 290V010 9999 FEW018 SCT042 05/01 Q1008 BLU 30010KT 9999 SCT023 TEMPO 32014G24KT 4000 SHRASNGS FEW007 SCT018CB
  • 160725Z AUTO 31010KT 280V340 9999 FEW058 05/01 Q1008 BLU 30010KT 9999 SCT023 TEMPO 32014G24KT 4000 SHRASNGS FEW007 SCT018CB
  • 160705Z AUTO 30010KT 270V340 9999 FEW015CB 04/01 Q1007 BLU 30010KT 9999 SCT023 TEMPO 32014G24KT 4000 SHRASNGS FEW007 SCT018CB
  • 160655Z AUTO 32014G25KT 290V010 9999 -RA FEW007 FEW015CB SCT020 BKN024 04/01 Q1007 WHT 32010KT 9999 SCT022 TEMPO 32012G22KT FEW018CB SCT020
  • 160645Z AUTO 33016G28KT 290V010 9999 -RA FEW007 SCT023 BKN032 05/00 Q1007 WHT 32010KT 9999 SCT022 TEMPO 32012G22KT FEW018CB SCT020
  • 160625Z AUTO 32012KT 290V360 9999 NCD 06/01 Q1007 BLU 32010KT 9999 SCT022 TEMPO 32012G22KT FEW018CB SCT020
  • 160557Z AUTO 32012KT 280V350 9999 FEW024 05/01 Q1006 BLU 32010KT 9999 SCT022 TEMPO 32012G22KT FEW018CB SCT020

TAF TAF EHKD
Valid from the 16 at 06:00 until the 16 at 18:00 UTC


160541Z 1606/1618 31012KT 9999 SCT025
TEMPO 1606/1618 FEW020CB SCT025
PROB40
TEMPO 1606/1618 32014G24KT 4000 SHRASNGS SCT012 SCT018CB BKN025
No reported NOTAMs for that airfield.



MET'MAP, your aeronautical weather chart ! - Copyright ORBIFLY December 2007 - Disclaimer

ORBIFLY MET'MAP TEAM :

Programming & Development : Alexandra Zaïnal
Concept & Development : Baudouin d'Aumeries
Co-Development & Prog : Marc-Olivier Méhu
Technical & hardware support : Manuel Goepfert

Contact : metmap@orbifly.com




SOURCES & CREDITS :

   NOAA